sensor_id;sensor_type;location;lat;lon;timestamp;pressure;altitude;pressure_sealevel;temperature;humidity
47080;BME280;33067;49.296;14.470;2023-03-31T00:01:42;96482.68;;;12.62;43.58
47080;BME280;33067;49.296;14.470;2023-03-31T00:04:08;96486.65;;;12.37;43.93
47080;BME280;33067;49.296;14.470;2023-03-31T00:06:36;96485.16;;;12.79;43.68
47080;BME280;33067;49.296;14.470;2023-03-31T00:08:58;96478.58;;;12.48;43.87
47080;BME280;33067;49.296;14.470;2023-03-31T00:11:24;96479.01;;;12.73;43.67
47080;BME280;33067;49.296;14.470;2023-03-31T00:13:49;96486.63;;;12.33;43.97
47080;BME280;33067;49.296;14.470;2023-03-31T00:16:14;96487.37;;;12.61;43.78
47080;BME280;33067;49.296;14.470;2023-03-31T00:18:40;96484.05;;;11.96;44.41
47080;BME280;33067;49.296;14.470;2023-03-31T00:21:08;96479.13;;;11.99;44.27
47080;BME280;33067;49.296;14.470;2023-03-31T00:23:31;96477.48;;;12.21;44.22
47080;BME280;33067;49.296;14.470;2023-03-31T00:25:56;96474.73;;;11.85;44.36
47080;BME280;33067;49.296;14.470;2023-03-31T00:28:22;96477.56;;;12.04;44.76
47080;BME280;33067;49.296;14.470;2023-03-31T00:30:47;96475.05;;;11.54;44.80
47080;BME280;33067;49.296;14.470;2023-03-31T00:33:12;96468.49;;;12.04;44.66
47080;BME280;33067;49.296;14.470;2023-03-31T00:35:38;96465.55;;;12.08;44.50
47080;BME280;33067;49.296;14.470;2023-03-31T00:38:03;96463.98;;;12.46;44.09
47080;BME280;33067;49.296;14.470;2023-03-31T00:40:28;96461.58;;;12.19;44.29
47080;BME280;33067;49.296;14.470;2023-03-31T00:42:54;96452.89;;;12.23;44.18
47080;BME280;33067;49.296;14.470;2023-03-31T00:45:23;96448.09;;;12.45;44.38
47080;BME280;33067;49.296;14.470;2023-03-31T00:47:46;96441.08;;;12.60;43.94
47080;BME280;33067;49.296;14.470;2023-03-31T00:50:14;96431.62;;;12.69;43.85
47080;BME280;33067;49.296;14.470;2023-03-31T00:52:36;96429.63;;;12.57;44.01
47080;BME280;33067;49.296;14.470;2023-03-31T00:55:05;96428.20;;;12.07;44.09
47080;BME280;33067;49.296;14.470;2023-03-31T00:57:27;96427.32;;;12.56;44.17
47080;BME280;33067;49.296;14.470;2023-03-31T00:59:54;96428.97;;;12.51;43.64
47080;BME280;33067;49.296;14.470;2023-03-31T01:02:17;96423.74;;;12.33;44.34
47080;BME280;33067;49.296;14.470;2023-03-31T01:04:45;96419.00;;;12.17;44.08
47080;BME280;33067;49.296;14.470;2023-03-31T01:07:12;96414.71;;;12.19;44.08
47080;BME280;33067;49.296;14.470;2023-03-31T01:09:32;96412.79;;;11.73;44.94
47080;BME280;33067;49.296;14.470;2023-03-31T01:11:57;96405.95;;;11.83;44.97
47080;BME280;33067;49.296;14.470;2023-03-31T01:14:23;96399.43;;;11.78;44.41
47080;BME280;33067;49.296;14.470;2023-03-31T01:16:48;96401.67;;;11.85;44.50
47080;BME280;33067;49.296;14.470;2023-03-31T01:19:21;96399.75;;;12.36;44.37
47080;BME280;33067;49.296;14.470;2023-03-31T01:21:48;96391.79;;;12.29;44.50
47080;BME280;33067;49.296;14.470;2023-03-31T01:26:43;96382.50;;;12.44;43.73
47080;BME280;33067;49.296;14.470;2023-03-31T01:29:01;96376.92;;;12.13;44.01
47080;BME280;33067;49.296;14.470;2023-03-31T01:31:35;96369.88;;;12.36;44.13
47080;BME280;33067;49.296;14.470;2023-03-31T01:41:15;96361.81;;;12.16;43.66
47080;BME280;33067;49.296;14.470;2023-03-31T01:43:32;96362.21;;;12.33;43.69
47080;BME280;33067;49.296;14.470;2023-03-31T01:45:59;96355.40;;;12.06;43.72
47080;BME280;33067;49.296;14.470;2023-03-31T01:48:22;96355.04;;;12.05;43.80
47080;BME280;33067;49.296;14.470;2023-03-31T01:50:46;96351.84;;;12.33;43.58
47080;BME280;33067;49.296;14.470;2023-03-31T01:53:15;96346.04;;;12.45;43.27
47080;BME280;33067;49.296;14.470;2023-03-31T01:55:36;96345.05;;;12.47;42.84
47080;BME280;33067;49.296;14.470;2023-03-31T01:58:04;96343.81;;;12.25;43.34
47080;BME280;33067;49.296;14.470;2023-03-31T02:00:28;96337.29;;;12.16;42.76
47080;BME280;33067;49.296;14.470;2023-03-31T02:02:56;96334.81;;;12.38;42.53
47080;BME280;33067;49.296;14.470;2023-03-31T02:05:18;96332.62;;;12.02;42.69
47080;BME280;33067;49.296;14.470;2023-03-31T02:07:45;96332.26;;;12.32;42.29
47080;BME280;33067;49.296;14.470;2023-03-31T02:13:02;96329.30;;;12.51;41.86
47080;BME280;33067;49.296;14.470;2023-03-31T02:15:28;96331.80;;;12.25;42.48
47080;BME280;33067;49.296;14.470;2023-03-31T02:17:55;96333.18;;;11.82;42.73
47080;BME280;33067;49.296;14.470;2023-03-31T02:20:20;96337.11;;;11.54;42.83
47080;BME280;33067;49.296;14.470;2023-03-31T02:22:44;96334.80;;;11.46;43.08
47080;BME280;33067;49.296;14.470;2023-03-31T02:25:09;96336.36;;;11.62;43.83
47080;BME280;33067;49.296;14.470;2023-03-31T02:27:34;96341.89;;;11.29;44.08
47080;BME280;33067;49.296;14.470;2023-03-31T02:29:58;96340.71;;;11.41;44.47
47080;BME280;33067;49.296;14.470;2023-03-31T02:32:26;96333.11;;;11.24;44.74
47080;BME280;33067;49.296;14.470;2023-03-31T02:34:48;96321.27;;;11.44;44.27
47080;BME280;33067;49.296;14.470;2023-03-31T02:37:14;96320.99;;;10.69;44.36
47080;BME280;33067;49.296;14.470;2023-03-31T02:39:41;96318.45;;;11.19;43.98
47080;BME280;33067;49.296;14.470;2023-03-31T02:42:05;96319.05;;;11.09;44.14
47080;BME280;33067;49.296;14.470;2023-03-31T02:44:29;96319.85;;;10.82;44.19
47080;BME280;33067;49.296;14.470;2023-03-31T02:46:55;96318.95;;;10.86;44.84
47080;BME280;33067;49.296;14.470;2023-03-31T02:49:20;96317.05;;;10.86;45.14
47080;BME280;33067;49.296;14.470;2023-03-31T02:51:59;96312.85;;;10.98;45.07
47080;BME280;33067;49.296;14.470;2023-03-31T02:54:24;96310.22;;;11.05;44.88
47080;BME280;33067;49.296;14.470;2023-03-31T02:56:50;96304.50;;;11.12;44.58
47080;BME280;33067;49.296;14.470;2023-03-31T02:59:15;96300.92;;;11.10;44.44
47080;BME280;33067;49.296;14.470;2023-03-31T03:01:38;96299.26;;;11.18;43.96
47080;BME280;33067;49.296;14.470;2023-03-31T03:04:00;96292.06;;;11.14;43.50
47080;BME280;33067;49.296;14.470;2023-03-31T03:06:27;96289.51;;;10.98;43.20
47080;BME280;33067;49.296;14.470;2023-03-31T03:08:59;96289.11;;;10.92;43.32
47080;BME280;33067;49.296;14.470;2023-03-31T03:11:14;96285.90;;;10.86;43.53
47080;BME280;33067;49.296;14.470;2023-03-31T03:13:37;96284.10;;;10.78;43.45
47080;BME280;33067;49.296;14.470;2023-03-31T03:18:24;96282.32;;;10.60;43.17
47080;BME280;33067;49.296;14.470;2023-03-31T03:20:50;96278.59;;;10.39;43.04
47080;BME280;33067;49.296;14.470;2023-03-31T03:23:15;96280.02;;;10.39;43.02
47080;BME280;33067;49.296;14.470;2023-03-31T03:25:40;96276.78;;;10.58;42.67
47080;BME280;33067;49.296;14.470;2023-03-31T03:28:05;96275.63;;;10.85;42.88
47080;BME280;33067;49.296;14.470;2023-03-31T03:30:31;96270.40;;;10.72;42.40
47080;BME280;33067;49.296;14.470;2023-03-31T03:32:56;96264.73;;;10.76;42.11
47080;BME280;33067;49.296;14.470;2023-03-31T03:35:21;96267.92;;;10.71;42.18
47080;BME280;33067;49.296;14.470;2023-03-31T03:37:47;96264.53;;;10.72;42.07
47080;BME280;33067;49.296;14.470;2023-03-31T03:40:12;96258.42;;;10.78;41.86
47080;BME280;33067;49.296;14.470;2023-03-31T03:42:37;96254.55;;;10.49;41.60
47080;BME280;33067;49.296;14.470;2023-03-31T03:45:03;96246.17;;;11.07;41.45
47080;BME280;33067;49.296;14.470;2023-03-31T03:47:28;96241.30;;;10.26;42.19
47080;BME280;33067;49.296;14.470;2023-03-31T03:49:54;96236.11;;;10.43;41.87
47080;BME280;33067;49.296;14.470;2023-03-31T03:52:19;96230.97;;;10.50;42.09
47080;BME280;33067;49.296;14.470;2023-03-31T03:54:44;96225.08;;;10.40;42.47
47080;BME280;33067;49.296;14.470;2023-03-31T03:57:10;96219.28;;;10.48;42.29
47080;BME280;33067;49.296;14.470;2023-03-31T03:59:35;96218.63;;;10.47;42.21
47080;BME280;33067;49.296;14.470;2023-03-31T04:02:00;96213.95;;;10.46;42.03
47080;BME280;33067;49.296;14.470;2023-03-31T04:04:26;96212.94;;;10.52;42.00
47080;BME280;33067;49.296;14.470;2023-03-31T04:06:51;96206.33;;;10.50;41.70
47080;BME280;33067;49.296;14.470;2023-03-31T04:09:16;96199.85;;;10.47;41.16
47080;BME280;33067;49.296;14.470;2023-03-31T04:11:42;96193.25;;;10.28;41.31
47080;BME280;33067;49.296;14.470;2023-03-31T04:14:07;96192.06;;;10.73;41.31
47080;BME280;33067;49.296;14.470;2023-03-31T04:16:32;96189.73;;;10.34;41.21
47080;BME280;33067;49.296;14.470;2023-03-31T04:18:58;96188.15;;;10.32;41.38
47080;BME280;33067;49.296;14.470;2023-03-31T04:21:23;96189.35;;;10.16;41.89
47080;BME280;33067;49.296;14.470;2023-03-31T04:23:49;96192.37;;;9.97;42.65
47080;BME280;33067;49.296;14.470;2023-03-31T04:26:15;96192.28;;;10.25;42.48
47080;BME280;33067;49.296;14.470;2023-03-31T04:28:40;96192.10;;;10.26;42.57
47080;BME280;33067;49.296;14.470;2023-03-31T04:31:04;96190.31;;;10.46;41.83
47080;BME280;33067;49.296;14.470;2023-03-31T04:33:30;96190.52;;;10.56;41.34
47080;BME280;33067;49.296;14.470;2023-03-31T04:35:55;96193.11;;;10.77;41.19
47080;BME280;33067;49.296;14.470;2023-03-31T04:38:22;96192.10;;;10.23;41.29
47080;BME280;33067;49.296;14.470;2023-03-31T04:40:47;96190.30;;;10.43;41.38
47080;BME280;33067;49.296;14.470;2023-03-31T04:43:11;96183.44;;;10.10;41.08
47080;BME280;33067;49.296;14.470;2023-03-31T04:45:37;96180.32;;;10.07;40.84
47080;BME280;33067;49.296;14.470;2023-03-31T04:48:02;96170.19;;;10.42;41.11
47080;BME280;33067;49.296;14.470;2023-03-31T04:50:27;96158.44;;;9.91;41.16
47080;BME280;33067;49.296;14.470;2023-03-31T04:52:53;96144.17;;;9.85;41.07
47080;BME280;33067;49.296;14.470;2023-03-31T04:55:19;96139.83;;;9.99;41.01
47080;BME280;33067;49.296;14.470;2023-03-31T04:57:44;96138.46;;;9.70;41.79
47080;BME280;33067;49.296;14.470;2023-03-31T05:00:10;96130.24;;;9.68;42.25
47080;BME280;33067;49.296;14.470;2023-03-31T05:02:35;96127.68;;;9.45;42.99
47080;BME280;33067;49.296;14.470;2023-03-31T05:05:00;96121.42;;;9.48;42.28
47080;BME280;33067;49.296;14.470;2023-03-31T05:07:26;96116.39;;;9.47;42.15
47080;BME280;33067;49.296;14.470;2023-03-31T05:09:51;96108.48;;;9.75;42.04
47080;BME280;33067;49.296;14.470;2023-03-31T05:12:16;96107.03;;;9.88;42.17
47080;BME280;33067;49.296;14.470;2023-03-31T05:14:42;96105.75;;;9.26;43.84
47080;BME280;33067;49.296;14.470;2023-03-31T05:17:07;96108.95;;;9.44;45.06
47080;BME280;33067;49.296;14.470;2023-03-31T05:19:34;96099.21;;;9.89;45.17
47080;BME280;33067;49.296;14.470;2023-03-31T05:21:58;96094.49;;;10.31;43.54
47080;BME280;33067;49.296;14.470;2023-03-31T05:24:23;96096.25;;;11.31;43.67
47080;BME280;33067;49.296;14.470;2023-03-31T05:26:49;96092.91;;;11.25;43.48
47080;BME280;33067;49.296;14.470;2023-03-31T05:29:14;96094.03;;;11.56;42.30
47080;BME280;33067;49.296;14.470;2023-03-31T05:31:40;96083.58;;;11.16;42.66
47080;BME280;33067;49.296;14.470;2023-03-31T05:34:05;96084.02;;;11.22;42.77
47080;BME280;33067;49.296;14.470;2023-03-31T05:36:30;96080.72;;;11.76;42.95
47080;BME280;33067;49.296;14.470;2023-03-31T05:38:56;96083.61;;;11.18;42.99
47080;BME280;33067;49.296;14.470;2023-03-31T05:41:21;96086.49;;;11.29;42.80
47080;BME280;33067;49.296;14.470;2023-03-31T05:43:46;96082.19;;;11.47;42.56
47080;BME280;33067;49.296;14.470;2023-03-31T05:46:12;96082.80;;;11.76;42.09
47080;BME280;33067;49.296;14.470;2023-03-31T05:48:37;96079.42;;;11.71;42.21
47080;BME280;33067;49.296;14.470;2023-03-31T05:51:03;96072.36;;;11.86;42.05
47080;BME280;33067;49.296;14.470;2023-03-31T05:53:28;96071.31;;;12.14;41.93
47080;BME280;33067;49.296;14.470;2023-03-31T05:55:56;96070.11;;;11.90;41.96
47080;BME280;33067;49.296;14.470;2023-03-31T05:58:18;96072.54;;;11.87;42.06
47080;BME280;33067;49.296;14.470;2023-03-31T06:00:44;96070.49;;;11.75;42.45
47080;BME280;33067;49.296;14.470;2023-03-31T06:03:09;96068.40;;;11.75;42.49
47080;BME280;33067;49.296;14.470;2023-03-31T06:05:34;96059.80;;;11.74;42.69
47080;BME280;33067;49.296;14.470;2023-03-31T06:07:59;96054.90;;;11.73;42.80
47080;BME280;33067;49.296;14.470;2023-03-31T06:10:25;96051.87;;;11.58;43.24
47080;BME280;33067;49.296;14.470;2023-03-31T06:12:50;96047.46;;;11.79;42.85
47080;BME280;33067;49.296;14.470;2023-03-31T06:15:15;96039.01;;;11.95;42.68
47080;BME280;33067;49.296;14.470;2023-03-31T06:17:40;96031.83;;;11.73;42.78
47080;BME280;33067;49.296;14.470;2023-03-31T06:20:07;96027.64;;;11.89;43.21
47080;BME280;33067;49.296;14.470;2023-03-31T06:22:31;96015.95;;;11.90;43.33
47080;BME280;33067;49.296;14.470;2023-03-31T06:24:56;96012.96;;;11.56;43.00
47080;BME280;33067;49.296;14.470;2023-03-31T06:27:22;96015.85;;;12.11;42.81
47080;BME280;33067;49.296;14.470;2023-03-31T06:29:47;96015.43;;;12.07;43.07
47080;BME280;33067;49.296;14.470;2023-03-31T06:32:13;96017.33;;;12.12;43.26
47080;BME280;33067;49.296;14.470;2023-03-31T06:34:39;96015.31;;;11.93;43.47
47080;BME280;33067;49.296;14.470;2023-03-31T06:37:04;96016.65;;;11.87;43.88
47080;BME280;33067;49.296;14.470;2023-03-31T06:39:29;96011.91;;;12.17;43.66
47080;BME280;33067;49.296;14.470;2023-03-31T06:41:54;96011.11;;;12.18;43.75
47080;BME280;33067;49.296;14.470;2023-03-31T06:44:20;96005.44;;;12.18;43.44
47080;BME280;33067;49.296;14.470;2023-03-31T06:46:45;96007.83;;;12.44;43.86
47080;BME280;33067;49.296;14.470;2023-03-31T06:49:11;96010.60;;;12.02;44.37
47080;BME280;33067;49.296;14.470;2023-03-31T06:51:35;96009.51;;;12.42;43.78
47080;BME280;33067;49.296;14.470;2023-03-31T06:54:01;96007.58;;;12.32;43.53
47080;BME280;33067;49.296;14.470;2023-03-31T06:56:26;96005.66;;;12.39;44.10
47080;BME280;33067;49.296;14.470;2023-03-31T06:58:51;96003.90;;;12.44;44.11
47080;BME280;33067;49.296;14.470;2023-03-31T07:01:17;95997.72;;;12.12;44.41
47080;BME280;33067;49.296;14.470;2023-03-31T07:03:42;95995.79;;;12.48;43.80
47080;BME280;33067;49.296;14.470;2023-03-31T07:06:07;95994.22;;;12.64;44.06
47080;BME280;33067;49.296;14.470;2023-03-31T07:08:33;95993.07;;;12.57;44.09
47080;BME280;33067;49.296;14.470;2023-03-31T07:10:59;95993.87;;;12.62;44.11
47080;BME280;33067;49.296;14.470;2023-03-31T07:13:25;95991.87;;;12.58;43.80
47080;BME280;33067;49.296;14.470;2023-03-31T07:15:49;95987.37;;;12.44;44.18
47080;BME280;33067;49.296;14.470;2023-03-31T07:18:14;95975.19;;;12.71;43.60
47080;BME280;33067;49.296;14.470;2023-03-31T07:32:47;95974.25;;;13.01;43.93
47080;BME280;33067;49.296;14.470;2023-03-31T07:35:13;95970.50;;;12.83;43.70
47080;BME280;33067;49.296;14.470;2023-03-31T07:37:39;95959.08;;;13.19;43.48
47080;BME280;33067;49.296;14.470;2023-03-31T07:40:04;95949.32;;;13.15;43.32
47080;BME280;33067;49.296;14.470;2023-03-31T07:42:28;95941.86;;;13.51;42.93
47080;BME280;33067;49.296;14.470;2023-03-31T07:44:53;95935.64;;;13.47;43.09
47080;BME280;33067;49.296;14.470;2023-03-31T07:47:18;95932.65;;;12.72;44.08
47080;BME280;33067;49.296;14.470;2023-03-31T07:49:43;95925.25;;;12.67;44.09
47080;BME280;33067;49.296;14.470;2023-03-31T07:52:09;95918.64;;;13.16;43.58
47080;BME280;33067;49.296;14.470;2023-03-31T07:54:34;95912.21;;;13.34;43.01
47080;BME280;33067;49.296;14.470;2023-03-31T07:57:00;95913.42;;;12.83;43.41
47080;BME280;33067;49.296;14.470;2023-03-31T07:59:26;95917.96;;;12.92;43.80
47080;BME280;33067;49.296;14.470;2023-03-31T08:01:51;95917.72;;;13.21;43.49
47080;BME280;33067;49.296;14.470;2023-03-31T08:04:17;95909.60;;;12.14;44.51
47080;BME280;33067;49.296;14.470;2023-03-31T08:06:42;95907.83;;;12.63;44.14
47080;BME280;33067;49.296;14.470;2023-03-31T08:09:17;95910.09;;;12.44;44.87
47080;BME280;33067;49.296;14.470;2023-03-31T08:11:32;95909.96;;;12.99;44.45
47080;BME280;33067;49.296;14.470;2023-03-31T08:13:57;95912.77;;;13.08;44.30
47080;BME280;33067;49.296;14.470;2023-03-31T08:16:23;95916.28;;;13.23;44.46
47080;BME280;33067;49.296;14.470;2023-03-31T08:18:48;95916.70;;;12.98;44.56
47080;BME280;33067;49.296;14.470;2023-03-31T08:23:40;95913.68;;;13.33;44.32
47080;BME280;33067;49.296;14.470;2023-03-31T08:26:10;95906.41;;;13.27;44.03
47080;BME280;33067;49.296;14.470;2023-03-31T08:28:29;95899.71;;;12.89;44.78
47080;BME280;33067;49.296;14.470;2023-03-31T08:30:55;95895.89;;;13.24;44.40
47080;BME280;33067;49.296;14.470;2023-03-31T08:33:21;95895.36;;;12.90;44.72
47080;BME280;33067;49.296;14.470;2023-03-31T08:35:46;95890.21;;;12.72;44.82
47080;BME280;33067;49.296;14.470;2023-03-31T08:38:12;95885.84;;;12.81;44.74
47080;BME280;33067;49.296;14.470;2023-03-31T08:40:39;95887.14;;;13.18;44.53
47080;BME280;33067;49.296;14.470;2023-03-31T08:43:07;95879.84;;;13.10;44.87
47080;BME280;33067;49.296;14.470;2023-03-31T08:45:30;95873.04;;;12.56;45.51
47080;BME280;33067;49.296;14.470;2023-03-31T08:47:56;95872.33;;;12.54;45.12
47080;BME280;33067;49.296;14.470;2023-03-31T08:50:22;95874.76;;;13.08;44.89
47080;BME280;33067;49.296;14.470;2023-03-31T08:52:49;95869.70;;;13.02;44.64
47080;BME280;33067;49.296;14.470;2023-03-31T08:55:12;95858.73;;;13.08;44.70
47080;BME280;33067;49.296;14.470;2023-03-31T08:57:42;95852.17;;;13.21;44.58
47080;BME280;33067;49.296;14.470;2023-03-31T09:00:00;95849.12;;;13.12;45.11
47080;BME280;33067;49.296;14.470;2023-03-31T09:02:31;95846.52;;;12.89;45.45
47080;BME280;33067;49.296;14.470;2023-03-31T09:05:03;95846.26;;;13.13;45.36
47080;BME280;33067;49.296;14.470;2023-03-31T09:07:20;95844.07;;;13.22;44.81
47080;BME280;33067;49.296;14.470;2023-03-31T09:09:48;95848.09;;;13.02;44.76
47080;BME280;33067;49.296;14.470;2023-03-31T09:12:10;95845.00;;;12.64;44.57
47080;BME280;33067;49.296;14.470;2023-03-31T09:14:37;95839.83;;;12.99;43.97
47080;BME280;33067;49.296;14.470;2023-03-31T09:17:07;95839.43;;;13.18;43.56
47080;BME280;33067;49.296;14.470;2023-03-31T09:19:32;95834.22;;;13.08;43.41
47080;BME280;33067;49.296;14.470;2023-03-31T09:21:50;95836.11;;;13.43;43.07
47080;BME280;33067;49.296;14.470;2023-03-31T09:24:16;95838.88;;;13.70;42.55
47080;BME280;33067;49.296;14.470;2023-03-31T09:26:42;95850.89;;;13.59;42.92
47080;BME280;33067;49.296;14.470;2023-03-31T09:29:09;95862.06;;;13.72;42.46
47080;BME280;33067;49.296;14.470;2023-03-31T09:31:31;95866.48;;;14.15;42.23
47080;BME280;33067;49.296;14.470;2023-03-31T09:34:00;95863.02;;;13.83;42.08
47080;BME280;33067;49.296;14.470;2023-03-31T09:36:21;95867.46;;;13.81;42.03
47080;BME280;33067;49.296;14.470;2023-03-31T09:38:46;95870.21;;;13.90;42.48
47080;BME280;33067;49.296;14.470;2023-03-31T09:41:12;95866.98;;;13.68;42.92
47080;BME280;33067;49.296;14.470;2023-03-31T09:43:36;95863.77;;;13.75;43.06
47080;BME280;33067;49.296;14.470;2023-03-31T09:46:02;95861.57;;;13.51;43.31
47080;BME280;33067;49.296;14.470;2023-03-31T09:48:29;95861.02;;;13.47;43.79
47080;BME280;33067;49.296;14.470;2023-03-31T09:50:56;95856.40;;;13.82;43.64
47080;BME280;33067;49.296;14.470;2023-03-31T09:53:23;95853.69;;;13.30;44.01
47080;BME280;33067;49.296;14.470;2023-03-31T09:55:45;95854.60;;;13.48;44.29
47080;BME280;33067;49.296;14.470;2023-03-31T09:58:12;95850.18;;;13.62;44.26
47080;BME280;33067;49.296;14.470;2023-03-31T10:00:34;95840.82;;;13.73;44.56
47080;BME280;33067;49.296;14.470;2023-03-31T10:03:02;95828.23;;;13.41;44.82
47080;BME280;33067;49.296;14.470;2023-03-31T10:05:28;95818.88;;;13.80;44.58
47080;BME280;33067;49.296;14.470;2023-03-31T10:07:51;95814.31;;;13.68;45.23
47080;BME280;33067;49.296;14.470;2023-03-31T10:10:25;95809.60;;;13.99;45.15
47080;BME280;33067;49.296;14.470;2023-03-31T10:12:48;95802.34;;;13.92;45.11
47080;BME280;33067;49.296;14.470;2023-03-31T10:15:18;95800.49;;;14.25;44.78
47080;BME280;33067;49.296;14.470;2023-03-31T10:17:35;95792.92;;;13.91;44.90
47080;BME280;33067;49.296;14.470;2023-03-31T10:19:58;95790.82;;;14.13;45.08
47080;BME280;33067;49.296;14.470;2023-03-31T10:22:29;95786.92;;;14.45;44.50
47080;BME280;33067;49.296;14.470;2023-03-31T10:24:50;95783.23;;;14.69;43.97
47080;BME280;33067;49.296;14.470;2023-03-31T10:27:19;95776.38;;;14.30;44.05
47080;BME280;33067;49.296;14.470;2023-03-31T10:29:38;95768.54;;;14.35;43.87
47080;BME280;33067;49.296;14.470;2023-03-31T10:32:10;95758.81;;;14.54;43.32
47080;BME280;33067;49.296;14.470;2023-03-31T10:34:30;95762.09;;;14.07;44.52
47080;BME280;33067;49.296;14.470;2023-03-31T10:36:56;95755.37;;;14.23;44.84
47080;BME280;33067;49.296;14.470;2023-03-31T10:39:27;95752.24;;;13.93;45.31
47080;BME280;33067;49.296;14.470;2023-03-31T10:41:49;95747.13;;;14.54;44.42
47080;BME280;33067;49.296;14.470;2023-03-31T10:46:42;95741.82;;;14.06;44.52
47080;BME280;33067;49.296;14.470;2023-03-31T10:51:27;95748.24;;;13.95;45.03
47080;BME280;33067;49.296;14.470;2023-03-31T10:54:00;95754.71;;;14.23;44.75
47080;BME280;33067;49.296;14.470;2023-03-31T10:56:28;95763.55;;;14.20;44.30
47080;BME280;33067;49.296;14.470;2023-03-31T10:58:54;95769.36;;;14.31;44.79
47080;BME280;33067;49.296;14.470;2023-03-31T11:01:20;95771.03;;;14.50;44.10
47080;BME280;33067;49.296;14.470;2023-03-31T11:03:46;95768.36;;;14.32;44.37
47080;BME280;33067;49.296;14.470;2023-03-31T11:06:05;95759.95;;;14.62;43.75
47080;BME280;33067;49.296;14.470;2023-03-31T11:08:37;95764.90;;;14.42;44.04
47080;BME280;33067;49.296;14.470;2023-03-31T11:11:00;95760.61;;;14.37;44.26
47080;BME280;33067;49.296;14.470;2023-03-31T11:13:22;95750.01;;;14.11;44.53
47080;BME280;33067;49.296;14.470;2023-03-31T11:15:49;95734.26;;;14.42;44.57
47080;BME280;33067;49.296;14.470;2023-03-31T11:18:20;95721.94;;;14.46;44.37
47080;BME280;33067;49.296;14.470;2023-03-31T11:20:38;95711.52;;;14.25;45.12
47080;BME280;33067;49.296;14.470;2023-03-31T11:23:06;95670.46;;;14.36;44.99
47080;BME280;33067;49.296;14.470;2023-03-31T11:25:32;95641.23;;;13.83;46.55
47080;BME280;33067;49.296;14.470;2023-03-31T11:28:01;95636.95;;;14.29;46.68
47080;BME280;33067;49.296;14.470;2023-03-31T11:30:21;95635.38;;;14.54;45.96
47080;BME280;33067;49.296;14.470;2023-03-31T11:32:50;95629.73;;;14.36;45.15
47080;BME280;33067;49.296;14.470;2023-03-31T11:35:16;95625.69;;;14.07;46.23
47080;BME280;33067;49.296;14.470;2023-03-31T11:37:41;95628.35;;;14.36;45.09
47080;BME280;33067;49.296;14.470;2023-03-31T11:40:06;95630.65;;;14.68;45.93
47080;BME280;33067;49.296;14.470;2023-03-31T11:42:25;95630.88;;;14.27;45.56
47080;BME280;33067;49.296;14.470;2023-03-31T11:44:53;95626.74;;;14.65;45.35
47080;BME280;33067;49.296;14.470;2023-03-31T11:47:18;95625.96;;;14.67;44.91
47080;BME280;33067;49.296;14.470;2023-03-31T11:49:44;95622.48;;;15.01;43.08
47080;BME280;33067;49.296;14.470;2023-03-31T11:52:08;95614.97;;;14.88;43.90
47080;BME280;33067;49.296;14.470;2023-03-31T11:54:34;95605.40;;;15.20;42.12
47080;BME280;33067;49.296;14.470;2023-03-31T11:56:58;95597.76;;;15.38;41.61
47080;BME280;33067;49.296;14.470;2023-03-31T11:59:24;95594.97;;;15.48;42.19
47080;BME280;33067;49.296;14.470;2023-03-31T12:01:54;95582.22;;;15.79;41.93
47080;BME280;33067;49.296;14.470;2023-03-31T12:04:24;95563.21;;;15.58;42.68
47080;BME280;33067;49.296;14.470;2023-03-31T12:06:40;95560.56;;;15.81;42.16
47080;BME280;33067;49.296;14.470;2023-03-31T12:09:11;95561.60;;;15.93;42.29
47080;BME280;33067;49.296;14.470;2023-03-31T12:11:36;95556.34;;;15.75;41.74
47080;BME280;33067;49.296;14.470;2023-03-31T12:13:59;95549.01;;;15.55;41.56
47080;BME280;33067;49.296;14.470;2023-03-31T12:16:22;95558.72;;;15.06;44.28
47080;BME280;33067;49.296;14.470;2023-03-31T12:18:56;95567.81;;;14.97;43.95
47080;BME280;33067;49.296;14.470;2023-03-31T12:21:11;95568.84;;;14.74;44.62
47080;BME280;33067;49.296;14.470;2023-03-31T12:23:40;95560.22;;;15.42;43.48
47080;BME280;33067;49.296;14.470;2023-03-31T12:26:09;95553.07;;;15.60;42.42
47080;BME280;33067;49.296;14.470;2023-03-31T12:28:29;95535.50;;;15.54;42.05
47080;BME280;33067;49.296;14.470;2023-03-31T12:30:54;95532.69;;;15.51;41.71
47080;BME280;33067;49.296;14.470;2023-03-31T12:33:23;95541.57;;;15.61;41.36
47080;BME280;33067;49.296;14.470;2023-03-31T12:35:54;95550.01;;;15.72;41.30
47080;BME280;33067;49.296;14.470;2023-03-31T12:38:22;95545.68;;;15.86;41.35
47080;BME280;33067;49.296;14.470;2023-03-31T12:40:48;95541.60;;;16.15;41.18
47080;BME280;33067;49.296;14.470;2023-03-31T12:45:28;95545.12;;;16.30;41.07
47080;BME280;33067;49.296;14.470;2023-03-31T12:48:04;95537.18;;;16.22;41.06
47080;BME280;33067;49.296;14.470;2023-03-31T12:50:34;95535.16;;;16.57;40.38
47080;BME280;33067;49.296;14.470;2023-03-31T12:52:49;95538.29;;;16.61;40.96
47080;BME280;33067;49.296;14.470;2023-03-31T12:55:21;95547.45;;;16.56;40.69
47080;BME280;33067;49.296;14.470;2023-03-31T12:57:33;95552.63;;;16.58;40.23
47080;BME280;33067;49.296;14.470;2023-03-31T13:02:25;95518.59;;;16.24;40.62
47080;BME280;33067;49.296;14.470;2023-03-31T13:04:49;95507.34;;;16.43;40.21
47080;BME280;33067;49.296;14.470;2023-03-31T13:09:43;95490.30;;;16.53;39.44
47080;BME280;33067;49.296;14.470;2023-03-31T13:12:07;95480.49;;;17.00;38.69
47080;BME280;33067;49.296;14.470;2023-03-31T13:14:35;95473.72;;;16.73;38.57
47080;BME280;33067;49.296;14.470;2023-03-31T13:19:27;95452.84;;;16.84;38.98
47080;BME280;33067;49.296;14.470;2023-03-31T13:21:52;95442.05;;;16.89;38.36
47080;BME280;33067;49.296;14.470;2023-03-31T13:24:11;95434.22;;;16.93;37.22